sensor_id;sensor_type;location;lat;lon;timestamp;P1;durP1;ratioP1;P2;durP2;ratioP2
69419;SDS011;71621;52.030;113.516;2024-03-23T00:52:27;6.10;;;0.95;;
69419;SDS011;71621;52.030;113.516;2024-03-23T00:55:30;11.02;;;1.20;;
69419;SDS011;71621;52.030;113.516;2024-03-23T00:58:32;6.28;;;1.00;;
69419;SDS011;71621;52.030;113.516;2024-03-23T01:01:34;4.95;;;1.00;;
69419;SDS011;71621;52.030;113.516;2024-03-23T01:04:36;6.03;;;0.93;;
69419;SDS011;71621;52.030;113.516;2024-03-23T01:07:38;4.22;;;0.70;;
69419;SDS011;71621;52.030;113.516;2024-03-23T01:10:40;8.13;;;1.70;;
69419;SDS011;71621;52.030;113.516;2024-03-23T01:13:43;3.60;;;0.73;;
69419;SDS011;71621;52.030;113.516;2024-03-23T01:16:45;1.98;;;0.35;;
69419;SDS011;71621;52.030;113.516;2024-03-23T01:19:47;8.03;;;0.93;;
69419;SDS011;71621;52.030;113.516;2024-03-23T01:22:49;2.65;;;0.68;;
69419;SDS011;71621;52.030;113.516;2024-03-23T01:25:52;5.60;;;1.02;;
69419;SDS011;71621;52.030;113.516;2024-03-23T01:28:55;6.07;;;1.00;;
69419;SDS011;71621;52.030;113.516;2024-03-23T01:31:57;7.37;;;0.80;;
69419;SDS011;71621;52.030;113.516;2024-03-23T01:34:59;2.53;;;0.50;;
69419;SDS011;71621;52.030;113.516;2024-03-23T01:38:01;1.80;;;0.43;;
69419;SDS011;71621;52.030;113.516;2024-03-23T01:41:04;4.00;;;0.57;;
69419;SDS011;71621;52.030;113.516;2024-03-23T01:44:06;1.60;;;0.40;;
69419;SDS011;71621;52.030;113.516;2024-03-23T01:47:09;2.88;;;0.50;;
69419;SDS011;71621;52.030;113.516;2024-03-23T01:50:11;5.20;;;1.27;;
69419;SDS011;71621;52.030;113.516;2024-03-23T01:53:14;5.30;;;1.00;;
69419;SDS011;71621;52.030;113.516;2024-03-23T01:56:18;1.83;;;0.40;;
69419;SDS011;71621;52.030;113.516;2024-03-23T01:59:21;2.63;;;0.40;;
69419;SDS011;71621;52.030;113.516;2024-03-23T02:02:23;2.63;;;0.75;;
69419;SDS011;71621;52.030;113.516;2024-03-23T02:05:25;4.82;;;0.80;;
69419;SDS011;71621;52.030;113.516;2024-03-23T02:08:28;6.43;;;0.60;;
69419;SDS011;71621;52.030;113.516;2024-03-23T02:11:32;3.78;;;0.50;;
69419;SDS011;71621;52.030;113.516;2024-03-23T02:14:34;7.22;;;1.00;;
69419;SDS011;71621;52.030;113.516;2024-03-23T02:17:36;2.45;;;0.50;;
69419;SDS011;71621;52.030;113.516;2024-03-23T02:20:39;1.83;;;0.30;;
69419;SDS011;71621;52.030;113.516;2024-03-23T02:23:41;8.77;;;0.90;;
69419;SDS011;71621;52.030;113.516;2024-03-23T02:26:43;3.75;;;0.80;;
69419;SDS011;71621;52.030;113.516;2024-03-23T02:29:45;3.33;;;0.68;;
69419;SDS011;71621;52.030;113.516;2024-03-23T02:32:48;7.80;;;1.17;;
69419;SDS011;71621;52.030;113.516;2024-03-23T02:35:50;4.07;;;0.95;;
69419;SDS011;71621;52.030;113.516;2024-03-23T02:38:52;3.90;;;0.57;;
69419;SDS011;71621;52.030;113.516;2024-03-23T02:41:54;4.30;;;0.85;;
69419;SDS011;71621;52.030;113.516;2024-03-23T02:44:56;5.50;;;1.10;;
69419;SDS011;71621;52.030;113.516;2024-03-23T02:47:59;2.47;;;0.47;;
69419;SDS011;71621;52.030;113.516;2024-03-23T02:51:02;3.28;;;0.60;;
69419;SDS011;71621;52.030;113.516;2024-03-23T02:54:04;3.15;;;0.57;;
69419;SDS011;71621;52.030;113.516;2024-03-23T02:57:06;5.90;;;1.15;;
69419;SDS011;71621;52.030;113.516;2024-03-23T03:00:08;3.70;;;0.60;;
69419;SDS011;71621;52.030;113.516;2024-03-23T03:03:12;5.78;;;0.70;;
69419;SDS011;71621;52.030;113.516;2024-03-23T03:06:22;5.22;;;0.90;;
69419;SDS011;71621;52.030;113.516;2024-03-23T03:09:28;3.10;;;0.68;;
69419;SDS011;71621;52.030;113.516;2024-03-23T03:12:30;2.80;;;0.75;;
69419;SDS011;71621;52.030;113.516;2024-03-23T03:15:33;9.98;;;1.50;;
69419;SDS011;71621;52.030;113.516;2024-03-23T03:18:35;13.60;;;4.07;;
69419;SDS011;71621;52.030;113.516;2024-03-23T03:21:37;6.82;;;1.85;;
69419;SDS011;71621;52.030;113.516;2024-03-23T03:24:39;18.87;;;6.33;;
69419;SDS011;71621;52.030;113.516;2024-03-23T03:27:42;8.75;;;1.55;;
69419;SDS011;71621;52.030;113.516;2024-03-23T03:30:44;3.08;;;1.00;;
69419;SDS011;71621;52.030;113.516;2024-03-23T03:33:47;6.10;;;1.67;;
69419;SDS011;71621;52.030;113.516;2024-03-23T03:36:52;7.50;;;1.40;;
69419;SDS011;71621;52.030;113.516;2024-03-23T03:39:54;5.40;;;1.30;;
69419;SDS011;71621;52.030;113.516;2024-03-23T03:42:56;2.88;;;0.77;;
69419;SDS011;71621;52.030;113.516;2024-03-23T03:45:59;3.45;;;0.90;;
69419;SDS011;71621;52.030;113.516;2024-03-23T03:49:01;8.60;;;1.50;;
69419;SDS011;71621;52.030;113.516;2024-03-23T03:52:04;4.73;;;1.20;;
69419;SDS011;71621;52.030;113.516;2024-03-23T03:55:12;8.02;;;0.85;;
69419;SDS011;71621;52.030;113.516;2024-03-23T03:58:16;4.22;;;0.98;;
69419;SDS011;71621;52.030;113.516;2024-03-23T04:01:18;6.43;;;1.23;;
69419;SDS011;71621;52.030;113.516;2024-03-23T04:04:21;13.50;;;3.10;;
69419;SDS011;71621;52.030;113.516;2024-03-23T04:07:23;9.18;;;1.90;;
69419;SDS011;71621;52.030;113.516;2024-03-23T04:10:26;16.83;;;5.53;;
69419;SDS011;71621;52.030;113.516;2024-03-23T04:13:28;6.75;;;1.75;;
69419;SDS011;71621;52.030;113.516;2024-03-23T04:16:33;4.40;;;1.00;;
69419;SDS011;71621;52.030;113.516;2024-03-23T04:19:36;3.73;;;1.00;;
69419;SDS011;71621;52.030;113.516;2024-03-23T04:22:38;5.18;;;1.25;;
69419;SDS011;71621;52.030;113.516;2024-03-23T04:25:41;5.63;;;0.77;;
69419;SDS011;71621;52.030;113.516;2024-03-23T04:28:43;7.68;;;1.30;;
69419;SDS011;71621;52.030;113.516;2024-03-23T04:31:45;3.28;;;0.95;;
69419;SDS011;71621;52.030;113.516;2024-03-23T04:34:48;3.50;;;0.60;;
69419;SDS011;71621;52.030;113.516;2024-03-23T04:37:50;7.43;;;0.90;;
69419;SDS011;71621;52.030;113.516;2024-03-23T04:40:57;7.70;;;1.27;;
69419;SDS011;71621;52.030;113.516;2024-03-23T04:44:00;4.70;;;0.93;;
69419;SDS011;71621;52.030;113.516;2024-03-23T04:47:02;9.02;;;1.23;;
69419;SDS011;71621;52.030;113.516;2024-03-23T04:50:08;4.00;;;0.90;;
69419;SDS011;71621;52.030;113.516;2024-03-23T04:53:12;2.45;;;0.70;;
69419;SDS011;71621;52.030;113.516;2024-03-23T04:56:14;6.93;;;1.48;;
69419;SDS011;71621;52.030;113.516;2024-03-23T04:59:18;9.55;;;3.25;;
69419;SDS011;71621;52.030;113.516;2024-03-23T05:02:20;7.03;;;1.90;;
69419;SDS011;71621;52.030;113.516;2024-03-23T05:05:23;15.47;;;2.13;;
69419;SDS011;71621;52.030;113.516;2024-03-23T05:08:25;8.10;;;1.70;;
69419;SDS011;71621;52.030;113.516;2024-03-23T05:11:27;8.07;;;1.50;;
69419;SDS011;71621;52.030;113.516;2024-03-23T05:14:29;5.50;;;1.15;;
69419;SDS011;71621;52.030;113.516;2024-03-23T05:17:32;7.93;;;1.40;;
69419;SDS011;71621;52.030;113.516;2024-03-23T05:20:34;10.60;;;1.37;;
69419;SDS011;71621;52.030;113.516;2024-03-23T05:23:37;13.05;;;2.53;;
69419;SDS011;71621;52.030;113.516;2024-03-23T05:26:39;5.00;;;1.45;;
69419;SDS011;71621;52.030;113.516;2024-03-23T05:29:41;3.70;;;1.40;;
69419;SDS011;71621;52.030;113.516;2024-03-23T05:32:43;4.28;;;0.88;;
69419;SDS011;71621;52.030;113.516;2024-03-23T05:35:47;5.17;;;0.93;;
69419;SDS011;71621;52.030;113.516;2024-03-23T05:38:57;12.20;;;1.38;;
69419;SDS011;71621;52.030;113.516;2024-03-23T05:41:59;8.13;;;1.05;;
69419;SDS011;71621;52.030;113.516;2024-03-23T05:45:01;3.05;;;0.88;;
69419;SDS011;71621;52.030;113.516;2024-03-23T05:48:06;9.57;;;0.82;;
69419;SDS011;71621;52.030;113.516;2024-03-23T05:51:09;7.43;;;1.37;;
69419;SDS011;71621;52.030;113.516;2024-03-23T05:54:12;7.10;;;0.98;;
69419;SDS011;71621;52.030;113.516;2024-03-23T05:57:14;4.38;;;0.88;;
69419;SDS011;71621;52.030;113.516;2024-03-23T06:00:16;4.15;;;0.98;;
69419;SDS011;71621;52.030;113.516;2024-03-23T06:03:19;3.70;;;0.77;;
69419;SDS011;71621;52.030;113.516;2024-03-23T06:06:22;8.23;;;0.90;;
69419;SDS011;71621;52.030;113.516;2024-03-23T06:09:25;8.18;;;2.00;;
69419;SDS011;71621;52.030;113.516;2024-03-23T06:12:27;5.35;;;1.20;;
69419;SDS011;71621;52.030;113.516;2024-03-23T06:15:29;9.55;;;1.50;;
69419;SDS011;71621;52.030;113.516;2024-03-23T06:18:32;5.68;;;1.17;;
69419;SDS011;71621;52.030;113.516;2024-03-23T06:21:34;4.83;;;0.90;;
69419;SDS011;71621;52.030;113.516;2024-03-23T06:24:37;16.45;;;2.90;;
69419;SDS011;71621;52.030;113.516;2024-03-23T06:27:39;12.35;;;2.53;;
69419;SDS011;71621;52.030;113.516;2024-03-23T06:30:42;5.78;;;0.93;;
69419;SDS011;71621;52.030;113.516;2024-03-23T06:33:43;7.38;;;0.98;;
69419;SDS011;71621;52.030;113.516;2024-03-23T06:36:46;6.07;;;1.17;;
69419;SDS011;71621;52.030;113.516;2024-03-23T06:39:48;8.77;;;1.90;;
69419;SDS011;71621;52.030;113.516;2024-03-23T06:42:50;6.22;;;1.10;;
69419;SDS011;71621;52.030;113.516;2024-03-23T06:45:53;11.55;;;3.75;;
69419;SDS011;71621;52.030;113.516;2024-03-23T06:48:55;19.92;;;6.35;;
69419;SDS011;71621;52.030;113.516;2024-03-23T06:51:58;6.17;;;2.30;;
69419;SDS011;71621;52.030;113.516;2024-03-23T06:55:00;12.85;;;5.88;;
69419;SDS011;71621;52.030;113.516;2024-03-23T06:58:02;14.55;;;6.90;;
69419;SDS011;71621;52.030;113.516;2024-03-23T07:01:05;12.27;;;4.63;;
69419;SDS011;71621;52.030;113.516;2024-03-23T07:04:08;7.63;;;1.73;;
69419;SDS011;71621;52.030;113.516;2024-03-23T07:07:10;5.87;;;1.57;;
69419;SDS011;71621;52.030;113.516;2024-03-23T07:10:13;4.93;;;1.38;;
69419;SDS011;71621;52.030;113.516;2024-03-23T07:13:15;5.53;;;1.70;;
69419;SDS011;71621;52.030;113.516;2024-03-23T07:16:18;7.78;;;2.10;;
69419;SDS011;71621;52.030;113.516;2024-03-23T07:19:20;9.38;;;2.42;;
69419;SDS011;71621;52.030;113.516;2024-03-23T07:22:22;5.83;;;2.37;;
69419;SDS011;71621;52.030;113.516;2024-03-23T07:25:25;4.78;;;1.30;;
69419;SDS011;71621;52.030;113.516;2024-03-23T07:28:29;4.22;;;1.60;;
69419;SDS011;71621;52.030;113.516;2024-03-23T07:31:33;5.80;;;0.98;;
69419;SDS011;71621;52.030;113.516;2024-03-23T07:34:35;6.28;;;1.73;;
69419;SDS011;71621;52.030;113.516;2024-03-23T07:37:38;3.33;;;0.70;;
69419;SDS011;71621;52.030;113.516;2024-03-23T07:40:40;7.38;;;1.05;;
69419;SDS011;71621;52.030;113.516;2024-03-23T07:43:42;4.05;;;0.63;;
69419;SDS011;71621;52.030;113.516;2024-03-23T07:46:45;4.55;;;0.82;;
69419;SDS011;71621;52.030;113.516;2024-03-23T07:49:47;7.10;;;1.70;;
69419;SDS011;71621;52.030;113.516;2024-03-23T07:52:50;7.93;;;1.13;;
69419;SDS011;71621;52.030;113.516;2024-03-23T07:55:54;15.25;;;2.00;;
69419;SDS011;71621;52.030;113.516;2024-03-23T07:58:56;6.05;;;1.17;;
69419;SDS011;71621;52.030;113.516;2024-03-23T08:01:59;7.30;;;1.48;;
69419;SDS011;71621;52.030;113.516;2024-03-23T08:05:01;84.07;;;31.67;;
69419;SDS011;71621;52.030;113.516;2024-03-23T08:08:04;14.23;;;2.23;;
69419;SDS011;71621;52.030;113.516;2024-03-23T08:11:06;5.53;;;1.55;;
69419;SDS011;71621;52.030;113.516;2024-03-23T08:14:09;9.85;;;1.58;;
69419;SDS011;71621;52.030;113.516;2024-03-23T08:17:11;5.30;;;0.88;;
69419;SDS011;71621;52.030;113.516;2024-03-23T08:20:13;5.50;;;1.48;;
69419;SDS011;71621;52.030;113.516;2024-03-23T08:23:15;7.93;;;2.20;;
69419;SDS011;71621;52.030;113.516;2024-03-23T08:26:18;9.05;;;2.58;;
69419;SDS011;71621;52.030;113.516;2024-03-23T08:29:20;9.70;;;1.75;;
69419;SDS011;71621;52.030;113.516;2024-03-23T08:32:22;4.65;;;1.42;;
69419;SDS011;71621;52.030;113.516;2024-03-23T08:35:24;8.15;;;1.80;;
69419;SDS011;71621;52.030;113.516;2024-03-23T08:38:27;8.63;;;1.77;;
69419;SDS011;71621;52.030;113.516;2024-03-23T08:41:30;6.43;;;1.58;;
69419;SDS011;71621;52.030;113.516;2024-03-23T08:44:32;6.88;;;1.83;;
69419;SDS011;71621;52.030;113.516;2024-03-23T08:47:34;6.22;;;1.80;;
69419;SDS011;71621;52.030;113.516;2024-03-23T08:50:37;8.23;;;1.80;;
69419;SDS011;71621;52.030;113.516;2024-03-23T08:53:40;7.20;;;1.93;;
69419;SDS011;71621;52.030;113.516;2024-03-23T08:56:42;9.95;;;2.33;;
69419;SDS011;71621;52.030;113.516;2024-03-23T08:59:44;8.15;;;2.30;;
69419;SDS011;71621;52.030;113.516;2024-03-23T09:02:47;7.78;;;2.25;;
69419;SDS011;71621;52.030;113.516;2024-03-23T09:05:50;9.40;;;2.10;;
69419;SDS011;71621;52.030;113.516;2024-03-23T09:08:53;11.83;;;2.20;;
69419;SDS011;71621;52.030;113.516;2024-03-23T09:11:55;6.88;;;1.70;;
69419;SDS011;71621;52.030;113.516;2024-03-23T09:14:57;6.25;;;1.40;;
69419;SDS011;71621;52.030;113.516;2024-03-23T09:18:00;8.02;;;1.40;;
69419;SDS011;71621;52.030;113.516;2024-03-23T09:21:04;10.77;;;2.28;;
69419;SDS011;71621;52.030;113.516;2024-03-23T09:24:12;13.40;;;2.00;;
69419;SDS011;71621;52.030;113.516;2024-03-23T09:27:15;28.48;;;3.95;;
69419;SDS011;71621;52.030;113.516;2024-03-23T09:30:17;13.80;;;3.15;;
69419;SDS011;71621;52.030;113.516;2024-03-23T09:33:19;9.77;;;2.97;;
69419;SDS011;71621;52.030;113.516;2024-03-23T09:36:21;15.93;;;2.67;;
69419;SDS011;71621;52.030;113.516;2024-03-23T09:39:23;7.30;;;1.60;;
69419;SDS011;71621;52.030;113.516;2024-03-23T09:42:27;16.63;;;2.72;;
69419;SDS011;71621;52.030;113.516;2024-03-23T09:45:29;9.02;;;2.47;;
69419;SDS011;71621;52.030;113.516;2024-03-23T09:48:31;5.45;;;2.00;;
69419;SDS011;71621;52.030;113.516;2024-03-23T09:51:37;9.32;;;1.77;;
69419;SDS011;71621;52.030;113.516;2024-03-23T09:54:39;7.50;;;1.87;;
69419;SDS011;71621;52.030;113.516;2024-03-23T09:57:42;9.15;;;3.25;;
69419;SDS011;71621;52.030;113.516;2024-03-23T10:00:44;9.15;;;2.47;;
69419;SDS011;71621;52.030;113.516;2024-03-23T10:03:48;14.93;;;3.47;;
69419;SDS011;71621;52.030;113.516;2024-03-23T10:06:50;6.97;;;2.45;;
69419;SDS011;71621;52.030;113.516;2024-03-23T10:09:53;9.97;;;3.10;;
69419;SDS011;71621;52.030;113.516;2024-03-23T10:12:55;10.43;;;2.20;;
69419;SDS011;71621;52.030;113.516;2024-03-23T10:15:58;8.05;;;2.67;;
69419;SDS011;71621;52.030;113.516;2024-03-23T10:19:00;7.95;;;2.72;;
69419;SDS011;71621;52.030;113.516;2024-03-23T10:22:03;9.63;;;3.05;;
69419;SDS011;71621;52.030;113.516;2024-03-23T10:25:09;9.77;;;2.83;;
69419;SDS011;71621;52.030;113.516;2024-03-23T10:28:13;7.40;;;2.08;;
69419;SDS011;71621;52.030;113.516;2024-03-23T10:31:15;14.95;;;3.10;;
69419;SDS011;71621;52.030;113.516;2024-03-23T10:34:24;8.55;;;2.60;;
69419;SDS011;71621;52.030;113.516;2024-03-23T10:37:28;12.48;;;3.70;;
69419;SDS011;71621;52.030;113.516;2024-03-23T10:40:30;18.07;;;7.03;;
69419;SDS011;71621;52.030;113.516;2024-03-23T10:43:32;13.20;;;5.50;;
69419;SDS011;71621;52.030;113.516;2024-03-23T10:46:35;11.38;;;3.83;;
69419;SDS011;71621;52.030;113.516;2024-03-23T10:49:38;13.68;;;4.07;;
69419;SDS011;71621;52.030;113.516;2024-03-23T10:52:41;20.60;;;4.35;;
69419;SDS011;71621;52.030;113.516;2024-03-23T10:55:52;29.60;;;5.03;;
69419;SDS011;71621;52.030;113.516;2024-03-23T10:58:55;20.27;;;5.07;;
69419;SDS011;71621;52.030;113.516;2024-03-23T11:01:58;15.20;;;4.38;;
69419;SDS011;71621;52.030;113.516;2024-03-23T11:05:01;26.65;;;8.38;;
69419;SDS011;71621;52.030;113.516;2024-03-23T11:08:30;17.42;;;5.05;;
69419;SDS011;71621;52.030;113.516;2024-03-23T11:11:37;13.93;;;3.73;;
69419;SDS011;71621;52.030;113.516;2024-03-23T11:14:40;18.15;;;6.03;;
69419;SDS011;71621;52.030;113.516;2024-03-23T11:17:42;32.95;;;8.65;;
69419;SDS011;71621;52.030;113.516;2024-03-23T11:21:09;16.77;;;3.90;;
69419;SDS011;71621;52.030;113.516;2024-03-23T11:24:15;14.27;;;4.30;;
69419;SDS011;71621;52.030;113.516;2024-03-23T11:27:17;20.03;;;5.53;;
69419;SDS011;71621;52.030;113.516;2024-03-23T11:30:28;22.52;;;7.55;;
69419;SDS011;71621;52.030;113.516;2024-03-23T11:33:31;15.73;;;4.82;;
69419;SDS011;71621;52.030;113.516;2024-03-23T11:36:34;16.38;;;5.03;;
69419;SDS011;71621;52.030;113.516;2024-03-23T11:39:36;14.18;;;5.03;;
69419;SDS011;71621;52.030;113.516;2024-03-23T11:42:38;15.70;;;4.90;;
69419;SDS011;71621;52.030;113.516;2024-03-23T11:48:50;28.55;;;7.50;;
69419;SDS011;71621;52.030;113.516;2024-03-23T11:51:54;20.77;;;7.82;;
69419;SDS011;71621;52.030;113.516;2024-03-23T11:55:04;26.58;;;8.73;;
69419;SDS011;71621;52.030;113.516;2024-03-23T11:58:10;22.17;;;8.00;;
69419;SDS011;71621;52.030;113.516;2024-03-23T12:01:13;20.25;;;6.50;;
69419;SDS011;71621;52.030;113.516;2024-03-23T12:04:24;22.48;;;6.75;;
69419;SDS011;71621;52.030;113.516;2024-03-23T12:07:27;14.43;;;5.00;;
69419;SDS011;71621;52.030;113.516;2024-03-23T12:10:30;19.08;;;6.53;;
69419;SDS011;71621;52.030;113.516;2024-03-23T12:13:32;18.73;;;5.03;;
69419;SDS011;71621;52.030;113.516;2024-03-23T12:16:35;19.40;;;5.50;;
69419;SDS011;71621;52.030;113.516;2024-03-23T12:19:37;16.63;;;5.15;;
69419;SDS011;71621;52.030;113.516;2024-03-23T12:22:40;16.98;;;5.68;;
69419;SDS011;71621;52.030;113.516;2024-03-23T12:25:42;22.15;;;6.82;;
69419;SDS011;71621;52.030;113.516;2024-03-23T12:28:45;12.77;;;4.50;;
69419;SDS011;71621;52.030;113.516;2024-03-23T12:31:47;12.27;;;2.78;;
69419;SDS011;71621;52.030;113.516;2024-03-23T12:34:49;10.10;;;4.65;;
69419;SDS011;71621;52.030;113.516;2024-03-23T12:37:51;10.75;;;3.25;;
69419;SDS011;71621;52.030;113.516;2024-03-23T12:40:53;19.17;;;3.10;;
69419;SDS011;71621;52.030;113.516;2024-03-23T12:43:56;9.17;;;3.27;;
69419;SDS011;71621;52.030;113.516;2024-03-23T12:46:58;11.00;;;3.50;;
69419;SDS011;71621;52.030;113.516;2024-03-23T12:50:00;17.70;;;4.55;;
69419;SDS011;71621;52.030;113.516;2024-03-23T12:53:03;22.15;;;5.38;;
69419;SDS011;71621;52.030;113.516;2024-03-23T12:56:05;15.57;;;5.72;;
69419;SDS011;71621;52.030;113.516;2024-03-23T12:59:09;24.00;;;6.87;;
69419;SDS011;71621;52.030;113.516;2024-03-23T13:02:11;19.25;;;6.65;;
69419;SDS011;71621;52.030;113.516;2024-03-23T13:05:13;32.83;;;9.02;;
69419;SDS011;71621;52.030;113.516;2024-03-23T13:08:15;26.30;;;8.48;;
69419;SDS011;71621;52.030;113.516;2024-03-23T13:11:18;31.48;;;10.05;;
69419;SDS011;71621;52.030;113.516;2024-03-23T13:14:20;43.70;;;12.63;;
69419;SDS011;71621;52.030;113.516;2024-03-23T13:17:23;47.05;;;15.52;;
69419;SDS011;71621;52.030;113.516;2024-03-23T13:20:25;61.20;;;19.48;;
69419;SDS011;71621;52.030;113.516;2024-03-23T13:23:28;72.75;;;24.05;;
69419;SDS011;71621;52.030;113.516;2024-03-23T13:26:30;90.25;;;29.58;;
69419;SDS011;71621;52.030;113.516;2024-03-23T13:29:33;96.97;;;31.50;;
69419;SDS011;71621;52.030;113.516;2024-03-23T13:32:36;99.43;;;32.00;;
69419;SDS011;71621;52.030;113.516;2024-03-23T13:35:39;65.38;;;21.98;;
69419;SDS011;71621;52.030;113.516;2024-03-23T13:38:41;45.33;;;13.77;;
69419;SDS011;71621;52.030;113.516;2024-03-23T13:41:44;30.25;;;9.50;;
69419;SDS011;71621;52.030;113.516;2024-03-23T13:44:46;40.47;;;11.63;;
69419;SDS011;71621;52.030;113.516;2024-03-23T13:47:50;50.75;;;14.05;;
69419;SDS011;71621;52.030;113.516;2024-03-23T13:51:02;59.40;;;18.45;;
69419;SDS011;71621;52.030;113.516;2024-03-23T13:54:05;42.22;;;12.43;;
69419;SDS011;71621;52.030;113.516;2024-03-23T13:57:08;51.50;;;17.48;;
69419;SDS011;71621;52.030;113.516;2024-03-23T14:00:12;45.83;;;14.93;;
69419;SDS011;71621;52.030;113.516;2024-03-23T14:03:15;65.68;;;19.75;;
69419;SDS011;71621;52.030;113.516;2024-03-23T14:06:18;93.32;;;26.70;;
69419;SDS011;71621;52.030;113.516;2024-03-23T14:09:20;210.52;;;89.82;;
69419;SDS011;71621;52.030;113.516;2024-03-23T14:12:24;51.00;;;15.38;;
69419;SDS011;71621;52.030;113.516;2024-03-23T14:15:27;70.60;;;20.57;;
69419;SDS011;71621;52.030;113.516;2024-03-23T14:18:29;70.90;;;20.73;;
69419;SDS011;71621;52.030;113.516;2024-03-23T14:21:32;59.88;;;18.02;;
69419;SDS011;71621;52.030;113.516;2024-03-23T14:24:36;83.00;;;21.83;;
69419;SDS011;71621;52.030;113.516;2024-03-23T14:27:38;73.35;;;22.75;;
69419;SDS011;71621;52.030;113.516;2024-03-23T14:30:41;56.80;;;18.43;;
69419;SDS011;71621;52.030;113.516;2024-03-23T14:33:43;57.30;;;15.32;;
69419;SDS011;71621;52.030;113.516;2024-03-23T14:36:49;55.80;;;14.48;;
69419;SDS011;71621;52.030;113.516;2024-03-23T14:39:52;55.80;;;15.60;;
69419;SDS011;71621;52.030;113.516;2024-03-23T14:42:54;68.38;;;20.33;;
69419;SDS011;71621;52.030;113.516;2024-03-23T14:46:06;61.47;;;22.37;;
69419;SDS011;71621;52.030;113.516;2024-03-23T14:49:09;59.13;;;20.83;;
69419;SDS011;71621;52.030;113.516;2024-03-23T14:52:19;62.75;;;20.30;;
69419;SDS011;71621;52.030;113.516;2024-03-23T14:55:22;78.75;;;20.70;;
69419;SDS011;71621;52.030;113.516;2024-03-23T14:58:24;68.28;;;20.85;;
69419;SDS011;71621;52.030;113.516;2024-03-23T15:01:27;73.47;;;22.30;;
69419;SDS011;71621;52.030;113.516;2024-03-23T15:04:29;71.97;;;20.73;;
69419;SDS011;71621;52.030;113.516;2024-03-23T15:07:31;69.28;;;22.23;;
69419;SDS011;71621;52.030;113.516;2024-03-23T15:10:33;101.15;;;24.02;;
69419;SDS011;71621;52.030;113.516;2024-03-23T15:13:36;72.47;;;21.92;;
69419;SDS011;71621;52.030;113.516;2024-03-23T15:16:39;66.27;;;22.80;;
69419;SDS011;71621;52.030;113.516;2024-03-23T15:19:43;79.30;;;23.60;;
69419;SDS011;71621;52.030;113.516;2024-03-23T15:22:45;79.53;;;25.05;;
69419;SDS011;71621;52.030;113.516;2024-03-23T15:26:21;82.82;;;24.75;;
69419;SDS011;71621;52.030;113.516;2024-03-23T15:29:17;81.67;;;27.20;;
69419;SDS011;71621;52.030;113.516;2024-03-23T15:32:19;77.78;;;24.90;;
69419;SDS011;71621;52.030;113.516;2024-03-23T15:35:22;83.57;;;25.75;;
69419;SDS011;71621;52.030;113.516;2024-03-23T15:38:25;90.13;;;28.50;;
69419;SDS011;71621;52.030;113.516;2024-03-23T15:41:27;94.53;;;28.10;;
69419;SDS011;71621;52.030;113.516;2024-03-23T15:44:29;94.73;;;28.63;;
69419;SDS011;71621;52.030;113.516;2024-03-23T15:47:32;96.60;;;28.50;;
69419;SDS011;71621;52.030;113.516;2024-03-23T15:50:34;99.38;;;26.55;;
69419;SDS011;71621;52.030;113.516;2024-03-23T15:53:37;93.35;;;27.98;;
69419;SDS011;71621;52.030;113.516;2024-03-23T15:56:39;95.37;;;27.53;;
69419;SDS011;71621;52.030;113.516;2024-03-23T15:59:42;84.32;;;26.10;;
69419;SDS011;71621;52.030;113.516;2024-03-23T16:02:44;112.13;;;28.55;;
69419;SDS011;71621;52.030;113.516;2024-03-23T16:05:53;107.80;;;27.52;;
69419;SDS011;71621;52.030;113.516;2024-03-23T16:08:56;76.55;;;27.13;;
69419;SDS011;71621;52.030;113.516;2024-03-23T16:11:59;96.30;;;29.20;;
69419;SDS011;71621;52.030;113.516;2024-03-23T16:15:01;88.82;;;26.38;;
69419;SDS011;71621;52.030;113.516;2024-03-23T16:18:03;83.38;;;22.48;;
69419;SDS011;71621;52.030;113.516;2024-03-23T16:21:06;66.38;;;20.50;;
69419;SDS011;71621;52.030;113.516;2024-03-23T16:24:09;69.73;;;21.87;;
69419;SDS011;71621;52.030;113.516;2024-03-23T16:27:12;64.95;;;20.35;;
69419;SDS011;71621;52.030;113.516;2024-03-23T16:30:14;40.05;;;12.27;;
69419;SDS011;71621;52.030;113.516;2024-03-23T16:33:16;56.05;;;13.88;;
69419;SDS011;71621;52.030;113.516;2024-03-23T16:36:19;48.88;;;14.05;;
69419;SDS011;71621;52.030;113.516;2024-03-23T16:39:21;31.10;;;9.13;;
69419;SDS011;71621;52.030;113.516;2024-03-23T16:42:25;16.80;;;6.63;;
69419;SDS011;71621;52.030;113.516;2024-03-23T16:45:27;27.92;;;7.28;;
69419;SDS011;71621;52.030;113.516;2024-03-23T16:48:30;22.35;;;7.43;;
69419;SDS011;71621;52.030;113.516;2024-03-23T16:51:33;53.80;;;14.30;;
69419;SDS011;71621;52.030;113.516;2024-03-23T16:54:35;115.82;;;36.30;;
69419;SDS011;71621;52.030;113.516;2024-03-23T16:57:38;106.70;;;34.50;;
69419;SDS011;71621;52.030;113.516;2024-03-23T17:00:40;112.22;;;34.05;;
69419;SDS011;71621;52.030;113.516;2024-03-23T17:03:42;104.05;;;33.60;;
69419;SDS011;71621;52.030;113.516;2024-03-23T17:06:44;115.63;;;38.47;;
69419;SDS011;71621;52.030;113.516;2024-03-23T17:09:47;123.50;;;35.38;;
69419;SDS011;71621;52.030;113.516;2024-03-23T17:12:49;96.72;;;29.38;;
69419;SDS011;71621;52.030;113.516;2024-03-23T17:15:52;83.70;;;25.27;;
69419;SDS011;71621;52.030;113.516;2024-03-23T17:18:54;104.33;;;31.73;;
69419;SDS011;71621;52.030;113.516;2024-03-23T17:21:57;94.72;;;28.25;;
69419;SDS011;71621;52.030;113.516;2024-03-23T17:24:59;79.22;;;25.60;;
69419;SDS011;71621;52.030;113.516;2024-03-23T17:28:01;62.22;;;20.40;;
69419;SDS011;71621;52.030;113.516;2024-03-23T17:31:03;67.27;;;21.57;;
69419;SDS011;71621;52.030;113.516;2024-03-23T17:34:06;59.03;;;19.45;;
69419;SDS011;71621;52.030;113.516;2024-03-23T17:37:08;61.72;;;19.70;;
69419;SDS011;71621;52.030;113.516;2024-03-23T17:40:10;65.28;;;22.02;;
69419;SDS011;71621;52.030;113.516;2024-03-23T17:43:13;70.77;;;22.63;;
69419;SDS011;71621;52.030;113.516;2024-03-23T17:46:15;32.13;;;10.63;;
69419;SDS011;71621;52.030;113.516;2024-03-23T17:49:17;37.15;;;11.30;;
69419;SDS011;71621;52.030;113.516;2024-03-23T17:52:20;49.40;;;14.10;;
69419;SDS011;71621;52.030;113.516;2024-03-23T17:55:22;39.93;;;14.57;;
69419;SDS011;71621;52.030;113.516;2024-03-23T17:58:24;50.15;;;16.05;;
69419;SDS011;71621;52.030;113.516;2024-03-23T18:01:27;77.18;;;27.08;;
69419;SDS011;71621;52.030;113.516;2024-03-23T18:04:29;90.70;;;30.20;;
69419;SDS011;71621;52.030;113.516;2024-03-23T18:07:31;106.45;;;35.40;;
69419;SDS011;71621;52.030;113.516;2024-03-23T18:10:33;103.35;;;33.55;;
69419;SDS011;71621;52.030;113.516;2024-03-23T18:13:35;84.72;;;28.38;;
69419;SDS011;71621;52.030;113.516;2024-03-23T18:16:38;71.77;;;24.07;;
69419;SDS011;71621;52.030;113.516;2024-03-23T18:19:40;84.50;;;29.42;;
69419;SDS011;71621;52.030;113.516;2024-03-23T18:22:42;71.30;;;22.52;;
69419;SDS011;71621;52.030;113.516;2024-03-23T18:25:50;90.07;;;25.15;;
69419;SDS011;71621;52.030;113.516;2024-03-23T18:28:53;58.63;;;21.13;;
69419;SDS011;71621;52.030;113.516;2024-03-23T18:31:55;68.40;;;22.35;;